sensor_id;sensor_type;location;lat;lon;timestamp;temperature;humidity
44823;DHT22;51097;51.984;5.650;2022-08-14T00:00:16;25.00;73.50
44823;DHT22;51097;51.984;5.650;2022-08-14T00:02:43;25.00;73.40
44823;DHT22;51097;51.984;5.650;2022-08-14T00:05:11;25.00;73.80
44823;DHT22;51097;51.984;5.650;2022-08-14T00:07:37;25.10;74.40
44823;DHT22;51097;51.984;5.650;2022-08-14T00:10:05;25.00;74.60
44823;DHT22;51097;51.984;5.650;2022-08-14T00:12:33;25.10;75.60
44823;DHT22;51097;51.984;5.650;2022-08-14T00:15:00;25.30;74.30
44823;DHT22;51097;51.984;5.650;2022-08-14T00:17:26;25.20;74.60
44823;DHT22;51097;51.984;5.650;2022-08-14T00:19:51;25.20;75.10
44823;DHT22;51097;51.984;5.650;2022-08-14T00:22:18;25.10;75.30
44823;DHT22;51097;51.984;5.650;2022-08-14T00:24:44;25.20;75.60
44823;DHT22;51097;51.984;5.650;2022-08-14T00:27:10;25.30;75.80
44823;DHT22;51097;51.984;5.650;2022-08-14T00:29:36;25.30;75.80
44823;DHT22;51097;51.984;5.650;2022-08-14T00:32:01;25.30;75.80
44823;DHT22;51097;51.984;5.650;2022-08-14T00:34:27;25.40;75.80
44823;DHT22;51097;51.984;5.650;2022-08-14T00:36:52;25.50;75.70
44823;DHT22;51097;51.984;5.650;2022-08-14T00:39:18;25.50;76.10
44823;DHT22;51097;51.984;5.650;2022-08-14T00:41:44;25.50;76.20
44823;DHT22;51097;51.984;5.650;2022-08-14T00:44:10;25.60;75.20
44823;DHT22;51097;51.984;5.650;2022-08-14T00:46:37;25.60;75.70
44823;DHT22;51097;51.984;5.650;2022-08-14T00:49:03;25.60;76.30
44823;DHT22;51097;51.984;5.650;2022-08-14T00:51:28;25.50;76.40
44823;DHT22;51097;51.984;5.650;2022-08-14T00:53:58;25.60;76.30
44823;DHT22;51097;51.984;5.650;2022-08-14T00:56:24;25.70;76.50
44823;DHT22;51097;51.984;5.650;2022-08-14T00:58:50;25.80;76.60
44823;DHT22;51097;51.984;5.650;2022-08-14T01:01:16;25.80;77.00
44823;DHT22;51097;51.984;5.650;2022-08-14T01:03:44;25.70;76.70
44823;DHT22;51097;51.984;5.650;2022-08-14T01:06:11;25.90;76.90
44823;DHT22;51097;51.984;5.650;2022-08-14T01:08:39;25.90;76.80
44823;DHT22;51097;51.984;5.650;2022-08-14T01:11:07;25.90;76.60
44823;DHT22;51097;51.984;5.650;2022-08-14T01:13:37;25.90;76.40
44823;DHT22;51097;51.984;5.650;2022-08-14T01:16:07;25.90;77.20
44823;DHT22;51097;51.984;5.650;2022-08-14T01:18:34;25.80;77.10
44823;DHT22;51097;51.984;5.650;2022-08-14T01:23:55;25.90;77.60
44823;DHT22;51097;51.984;5.650;2022-08-14T01:26:22;25.90;77.50
44823;DHT22;51097;51.984;5.650;2022-08-14T01:28:52;25.90;77.50
44823;DHT22;51097;51.984;5.650;2022-08-14T01:31:24;25.80;77.30
44823;DHT22;51097;51.984;5.650;2022-08-14T01:33:52;25.90;77.30
44823;DHT22;51097;51.984;5.650;2022-08-14T01:36:20;25.90;77.70
44823;DHT22;51097;51.984;5.650;2022-08-14T01:38:47;25.80;77.40
44823;DHT22;51097;51.984;5.650;2022-08-14T01:41:18;25.90;77.80
44823;DHT22;51097;51.984;5.650;2022-08-14T01:43:55;25.90;77.60
44823;DHT22;51097;51.984;5.650;2022-08-14T01:46:27;25.80;77.80
44823;DHT22;51097;51.984;5.650;2022-08-14T01:48:53;25.80;78.30
44823;DHT22;51097;51.984;5.650;2022-08-14T01:51:20;25.90;78.20
44823;DHT22;51097;51.984;5.650;2022-08-14T01:53:52;25.90;78.20
44823;DHT22;51097;51.984;5.650;2022-08-14T01:56:19;25.80;78.20
44823;DHT22;51097;51.984;5.650;2022-08-14T01:58:47;25.90;78.40
44823;DHT22;51097;51.984;5.650;2022-08-14T02:01:18;25.80;78.50
44823;DHT22;51097;51.984;5.650;2022-08-14T02:03:45;25.90;78.60
44823;DHT22;51097;51.984;5.650;2022-08-14T02:06:11;25.80;78.30
44823;DHT22;51097;51.984;5.650;2022-08-14T02:08:41;25.80;78.60
44823;DHT22;51097;51.984;5.650;2022-08-14T02:11:08;25.90;78.60
44823;DHT22;51097;51.984;5.650;2022-08-14T02:13:56;25.80;78.90
44823;DHT22;51097;51.984;5.650;2022-08-14T02:16:26;25.80;78.70
44823;DHT22;51097;51.984;5.650;2022-08-14T02:18:53;25.80;79.10
44823;DHT22;51097;51.984;5.650;2022-08-14T02:21:20;25.80;78.50
44823;DHT22;51097;51.984;5.650;2022-08-14T02:23:46;25.80;78.60
44823;DHT22;51097;51.984;5.650;2022-08-14T02:26:21;25.90;78.30
44823;DHT22;51097;51.984;5.650;2022-08-14T02:28:50;25.90;78.70
44823;DHT22;51097;51.984;5.650;2022-08-14T02:31:17;25.80;78.80
44823;DHT22;51097;51.984;5.650;2022-08-14T02:33:43;25.80;78.80
44823;DHT22;51097;51.984;5.650;2022-08-14T02:36:10;25.80;79.00
44823;DHT22;51097;51.984;5.650;2022-08-14T02:38:37;25.90;79.10
44823;DHT22;51097;51.984;5.650;2022-08-14T02:41:04;25.90;79.00
44823;DHT22;51097;51.984;5.650;2022-08-14T02:43:30;25.80;79.30
44823;DHT22;51097;51.984;5.650;2022-08-14T02:45:57;25.80;79.30
44823;DHT22;51097;51.984;5.650;2022-08-14T02:48:23;25.80;79.30
44823;DHT22;51097;51.984;5.650;2022-08-14T02:51:02;25.90;79.30
44823;DHT22;51097;51.984;5.650;2022-08-14T02:53:29;25.90;79.30
44823;DHT22;51097;51.984;5.650;2022-08-14T02:55:56;25.70;79.80
44823;DHT22;51097;51.984;5.650;2022-08-14T02:58:22;25.80;79.90
44823;DHT22;51097;51.984;5.650;2022-08-14T03:00:48;25.80;79.90
44823;DHT22;51097;51.984;5.650;2022-08-14T03:03:13;25.70;80.50
44823;DHT22;51097;51.984;5.650;2022-08-14T03:05:41;25.60;80.20
44823;DHT22;51097;51.984;5.650;2022-08-14T03:08:09;25.60;80.10
44823;DHT22;51097;51.984;5.650;2022-08-14T03:10:36;25.60;80.80
44823;DHT22;51097;51.984;5.650;2022-08-14T03:13:01;25.60;80.90
44823;DHT22;51097;51.984;5.650;2022-08-14T03:15:31;25.60;81.30
44823;DHT22;51097;51.984;5.650;2022-08-14T03:17:58;25.60;81.30
44823;DHT22;51097;51.984;5.650;2022-08-14T03:20:28;25.40;81.80
44823;DHT22;51097;51.984;5.650;2022-08-14T03:22:55;25.40;82.10
44823;DHT22;51097;51.984;5.650;2022-08-14T03:25:26;25.30;82.30
44823;DHT22;51097;51.984;5.650;2022-08-14T03:28:00;25.20;81.70
44823;DHT22;51097;51.984;5.650;2022-08-14T03:30:29;25.20;82.50
44823;DHT22;51097;51.984;5.650;2022-08-14T03:32:55;25.20;82.30
44823;DHT22;51097;51.984;5.650;2022-08-14T03:35:22;25.10;82.00
44823;DHT22;51097;51.984;5.650;2022-08-14T03:37:48;25.00;83.10
44823;DHT22;51097;51.984;5.650;2022-08-14T03:40:20;25.10;83.80
44823;DHT22;51097;51.984;5.650;2022-08-14T03:42:47;25.00;83.70
44823;DHT22;51097;51.984;5.650;2022-08-14T03:45:13;24.90;84.40
44823;DHT22;51097;51.984;5.650;2022-08-14T03:47:39;24.90;84.20
44823;DHT22;51097;51.984;5.650;2022-08-14T03:50:06;24.90;84.70
44823;DHT22;51097;51.984;5.650;2022-08-14T03:52:34;24.70;83.80
44823;DHT22;51097;51.984;5.650;2022-08-14T03:55:00;24.60;83.40
44823;DHT22;51097;51.984;5.650;2022-08-14T03:57:27;24.60;83.20
44823;DHT22;51097;51.984;5.650;2022-08-14T03:59:57;24.50;82.80
44823;DHT22;51097;51.984;5.650;2022-08-14T04:02:22;24.50;84.60
44823;DHT22;51097;51.984;5.650;2022-08-14T04:04:48;24.30;83.70
44823;DHT22;51097;51.984;5.650;2022-08-14T04:07:14;24.30;84.20
44823;DHT22;51097;51.984;5.650;2022-08-14T04:09:40;24.20;83.60
44823;DHT22;51097;51.984;5.650;2022-08-14T04:12:05;24.10;84.10
44823;DHT22;51097;51.984;5.650;2022-08-14T04:14:31;24.00;85.30
44823;DHT22;51097;51.984;5.650;2022-08-14T04:16:57;24.00;85.20
44823;DHT22;51097;51.984;5.650;2022-08-14T04:19:22;24.00;86.10
44823;DHT22;51097;51.984;5.650;2022-08-14T04:21:48;23.90;85.80
44823;DHT22;51097;51.984;5.650;2022-08-14T04:24:15;23.80;86.80
44823;DHT22;51097;51.984;5.650;2022-08-14T04:26:42;23.80;86.20
44823;DHT22;51097;51.984;5.650;2022-08-14T04:29:11;23.70;86.60
44823;DHT22;51097;51.984;5.650;2022-08-14T04:31:38;23.60;87.30
44823;DHT22;51097;51.984;5.650;2022-08-14T04:34:04;23.60;88.20
44823;DHT22;51097;51.984;5.650;2022-08-14T04:36:31;23.70;87.70
44823;DHT22;51097;51.984;5.650;2022-08-14T04:39:17;23.50;88.40
44823;DHT22;51097;51.984;5.650;2022-08-14T04:42:01;23.50;89.10
44823;DHT22;51097;51.984;5.650;2022-08-14T04:44:45;23.40;89.50
44823;DHT22;51097;51.984;5.650;2022-08-14T04:47:10;23.30;90.40
44823;DHT22;51097;51.984;5.650;2022-08-14T04:49:54;23.10;91.00
44823;DHT22;51097;51.984;5.650;2022-08-14T04:52:20;23.10;91.20
44823;DHT22;51097;51.984;5.650;2022-08-14T04:54:45;23.10;91.30
44823;DHT22;51097;51.984;5.650;2022-08-14T04:57:11;23.10;91.40
44823;DHT22;51097;51.984;5.650;2022-08-14T04:59:39;23.00;92.10
44823;DHT22;51097;51.984;5.650;2022-08-14T05:02:04;22.90;92.30
44823;DHT22;51097;51.984;5.650;2022-08-14T05:04:30;22.90;92.40
44823;DHT22;51097;51.984;5.650;2022-08-14T05:06:55;22.90;92.40
44823;DHT22;51097;51.984;5.650;2022-08-14T05:09:24;22.80;92.50
44823;DHT22;51097;51.984;5.650;2022-08-14T05:11:50;22.80;93.20
44823;DHT22;51097;51.984;5.650;2022-08-14T05:14:18;22.70;93.80
44823;DHT22;51097;51.984;5.650;2022-08-14T05:16:46;22.80;94.40
44823;DHT22;51097;51.984;5.650;2022-08-14T05:19:13;22.70;94.60
44823;DHT22;51097;51.984;5.650;2022-08-14T05:21:40;22.60;95.20
44823;DHT22;51097;51.984;5.650;2022-08-14T05:24:06;22.90;95.60
44823;DHT22;51097;51.984;5.650;2022-08-14T05:26:32;22.80;95.70
44823;DHT22;51097;51.984;5.650;2022-08-14T05:28:57;22.70;96.00
44823;DHT22;51097;51.984;5.650;2022-08-14T05:31:23;22.80;96.40
44823;DHT22;51097;51.984;5.650;2022-08-14T05:33:48;22.90;96.70
44823;DHT22;51097;51.984;5.650;2022-08-14T05:36:14;22.90;96.80
44823;DHT22;51097;51.984;5.650;2022-08-14T05:38:43;23.00;96.90
44823;DHT22;51097;51.984;5.650;2022-08-14T05:41:13;23.10;96.70
44823;DHT22;51097;51.984;5.650;2022-08-14T05:43:40;23.20;96.90
44823;DHT22;51097;51.984;5.650;2022-08-14T05:46:10;23.30;96.90
44823;DHT22;51097;51.984;5.650;2022-08-14T05:48:37;23.40;96.90
44823;DHT22;51097;51.984;5.650;2022-08-14T05:51:02;23.60;96.40
44823;DHT22;51097;51.984;5.650;2022-08-14T05:53:28;23.60;96.30
44823;DHT22;51097;51.984;5.650;2022-08-14T05:55:54;23.70;96.40
44823;DHT22;51097;51.984;5.650;2022-08-14T05:58:20;23.80;96.60
44823;DHT22;51097;51.984;5.650;2022-08-14T06:00:46;23.90;96.60
44823;DHT22;51097;51.984;5.650;2022-08-14T06:03:16;24.00;96.60
44823;DHT22;51097;51.984;5.650;2022-08-14T06:05:45;24.10;96.10
44823;DHT22;51097;51.984;5.650;2022-08-14T06:08:26;24.30;96.10
44823;DHT22;51097;51.984;5.650;2022-08-14T06:10:54;24.40;95.70
44823;DHT22;51097;51.984;5.650;2022-08-14T06:13:20;24.30;95.90
44823;DHT22;51097;51.984;5.650;2022-08-14T06:15:47;24.40;95.80
44823;DHT22;51097;51.984;5.650;2022-08-14T06:18:14;24.50;95.60
44823;DHT22;51097;51.984;5.650;2022-08-14T06:20:40;24.60;95.50
44823;DHT22;51097;51.984;5.650;2022-08-14T06:23:06;24.70;95.50
44823;DHT22;51097;51.984;5.650;2022-08-14T06:25:31;24.80;95.50
44823;DHT22;51097;51.984;5.650;2022-08-14T06:27:57;24.90;95.30
44823;DHT22;51097;51.984;5.650;2022-08-14T06:30:25;25.00;95.10
44823;DHT22;51097;51.984;5.650;2022-08-14T06:32:52;25.00;95.20
44823;DHT22;51097;51.984;5.650;2022-08-14T06:35:18;25.30;94.90
44823;DHT22;51097;51.984;5.650;2022-08-14T06:37:51;25.30;94.80
44823;DHT22;51097;51.984;5.650;2022-08-14T06:40:28;25.30;94.90
44823;DHT22;51097;51.984;5.650;2022-08-14T06:43:00;25.50;94.70
44823;DHT22;51097;51.984;5.650;2022-08-14T06:45:27;25.60;94.70
44823;DHT22;51097;51.984;5.650;2022-08-14T06:47:53;25.60;94.60
44823;DHT22;51097;51.984;5.650;2022-08-14T06:50:21;25.80;94.60
44823;DHT22;51097;51.984;5.650;2022-08-14T06:52:48;25.90;93.90
44823;DHT22;51097;51.984;5.650;2022-08-14T06:55:15;26.00;94.00
44823;DHT22;51097;51.984;5.650;2022-08-14T06:57:48;26.10;94.10
44823;DHT22;51097;51.984;5.650;2022-08-14T07:00:20;26.30;93.90
44823;DHT22;51097;51.984;5.650;2022-08-14T07:02:46;26.50;93.70
44823;DHT22;51097;51.984;5.650;2022-08-14T07:05:31;26.50;93.60
44823;DHT22;51097;51.984;5.650;2022-08-14T07:08:29;26.60;93.40
44823;DHT22;51097;51.984;5.650;2022-08-14T07:10:57;26.80;93.10
44823;DHT22;51097;51.984;5.650;2022-08-14T07:13:24;26.90;92.90
44823;DHT22;51097;51.984;5.650;2022-08-14T07:15:53;27.00;92.90
44823;DHT22;51097;51.984;5.650;2022-08-14T07:18:21;27.10;92.70
44823;DHT22;51097;51.984;5.650;2022-08-14T07:20:47;27.20;92.40
44823;DHT22;51097;51.984;5.650;2022-08-14T07:23:13;27.40;92.10
44823;DHT22;51097;51.984;5.650;2022-08-14T07:25:41;27.50;91.90
44823;DHT22;51097;51.984;5.650;2022-08-14T07:28:10;27.60;91.40
44823;DHT22;51097;51.984;5.650;2022-08-14T07:30:36;27.70;91.50
44823;DHT22;51097;51.984;5.650;2022-08-14T07:33:02;27.70;91.30
44823;DHT22;51097;51.984;5.650;2022-08-14T07:35:28;27.80;91.10
44823;DHT22;51097;51.984;5.650;2022-08-14T07:37:54;28.00;90.90
44823;DHT22;51097;51.984;5.650;2022-08-14T07:40:19;28.10;91.00
44823;DHT22;51097;51.984;5.650;2022-08-14T07:42:45;28.20;90.60
44823;DHT22;51097;51.984;5.650;2022-08-14T07:45:10;28.40;90.40
44823;DHT22;51097;51.984;5.650;2022-08-14T07:47:43;28.50;90.30
44823;DHT22;51097;51.984;5.650;2022-08-14T07:52:37;28.70;89.30
44823;DHT22;51097;51.984;5.650;2022-08-14T07:55:03;29.00;89.10
44823;DHT22;51097;51.984;5.650;2022-08-14T07:57:29;28.90;88.70
44823;DHT22;51097;51.984;5.650;2022-08-14T07:59:55;29.10;88.20
44823;DHT22;51097;51.984;5.650;2022-08-14T08:02:20;29.20;87.40
44823;DHT22;51097;51.984;5.650;2022-08-14T08:04:51;29.40;87.60
44823;DHT22;51097;51.984;5.650;2022-08-14T08:07:18;29.70;86.70
44823;DHT22;51097;51.984;5.650;2022-08-14T08:09:49;29.80;86.20
44823;DHT22;51097;51.984;5.650;2022-08-14T08:12:19;29.90;85.40
44823;DHT22;51097;51.984;5.650;2022-08-14T08:14:45;29.90;85.30
44823;DHT22;51097;51.984;5.650;2022-08-14T08:17:12;30.10;84.20
44823;DHT22;51097;51.984;5.650;2022-08-14T08:19:39;30.20;84.00
44823;DHT22;51097;51.984;5.650;2022-08-14T08:22:05;30.20;83.50
44823;DHT22;51097;51.984;5.650;2022-08-14T08:24:31;30.40;83.60
44823;DHT22;51097;51.984;5.650;2022-08-14T08:26:56;30.60;83.20
44823;DHT22;51097;51.984;5.650;2022-08-14T08:29:23;30.70;83.30
44823;DHT22;51097;51.984;5.650;2022-08-14T08:31:51;30.70;83.10
44823;DHT22;51097;51.984;5.650;2022-08-14T08:34:18;30.70;82.30
44823;DHT22;51097;51.984;5.650;2022-08-14T08:36:44;30.80;81.20
44823;DHT22;51097;51.984;5.650;2022-08-14T08:39:10;30.90;82.10
44823;DHT22;51097;51.984;5.650;2022-08-14T08:41:44;30.90;82.00
44823;DHT22;51097;51.984;5.650;2022-08-14T08:44:12;31.00;82.20
44823;DHT22;51097;51.984;5.650;2022-08-14T08:46:37;31.00;82.00
44823;DHT22;51097;51.984;5.650;2022-08-14T08:49:04;31.10;81.10
44823;DHT22;51097;51.984;5.650;2022-08-14T08:51:32;31.10;80.80
44823;DHT22;51097;51.984;5.650;2022-08-14T08:54:12;31.10;80.50
44823;DHT22;51097;51.984;5.650;2022-08-14T08:56:39;31.20;80.20
44823;DHT22;51097;51.984;5.650;2022-08-14T09:01:57;31.30;80.30
44823;DHT22;51097;51.984;5.650;2022-08-14T09:04:26;31.20;81.00
44823;DHT22;51097;51.984;5.650;2022-08-14T09:06:52;31.20;80.20
44823;DHT22;51097;51.984;5.650;2022-08-14T09:09:23;31.20;79.60
44823;DHT22;51097;51.984;5.650;2022-08-14T09:11:49;31.30;79.30
44823;DHT22;51097;51.984;5.650;2022-08-14T09:14:15;31.30;79.10
44823;DHT22;51097;51.984;5.650;2022-08-14T09:16:40;31.40;79.70
44823;DHT22;51097;51.984;5.650;2022-08-14T09:19:06;31.40;79.10
44823;DHT22;51097;51.984;5.650;2022-08-14T09:21:33;31.40;79.30
44823;DHT22;51097;51.984;5.650;2022-08-14T09:24:00;31.70;78.80
44823;DHT22;51097;51.984;5.650;2022-08-14T09:26:26;31.60;78.40
44823;DHT22;51097;51.984;5.650;2022-08-14T09:28:52;31.70;78.60
44823;DHT22;51097;51.984;5.650;2022-08-14T09:31:18;31.70;77.40
44823;DHT22;51097;51.984;5.650;2022-08-14T09:39:19;31.80;77.90
44823;DHT22;51097;51.984;5.650;2022-08-14T09:47:18;32.10;78.00
44823;DHT22;51097;51.984;5.650;2022-08-14T09:49:45;32.20;76.80
44823;DHT22;51097;51.984;5.650;2022-08-14T09:52:13;32.20;77.60
44823;DHT22;51097;51.984;5.650;2022-08-14T09:54:42;32.20;77.20
44823;DHT22;51097;51.984;5.650;2022-08-14T09:57:10;32.40;77.60
44823;DHT22;51097;51.984;5.650;2022-08-14T09:59:44;32.50;75.30
44823;DHT22;51097;51.984;5.650;2022-08-14T10:02:28;32.60;75.50
44823;DHT22;51097;51.984;5.650;2022-08-14T10:05:10;32.60;74.80
44823;DHT22;51097;51.984;5.650;2022-08-14T10:07:44;32.60;75.10
44823;DHT22;51097;51.984;5.650;2022-08-14T10:10:25;32.80;75.10
44823;DHT22;51097;51.984;5.650;2022-08-14T10:12:51;32.80;74.30
44823;DHT22;51097;51.984;5.650;2022-08-14T10:15:25;33.00;73.90
44823;DHT22;51097;51.984;5.650;2022-08-14T10:20:32;33.10;71.40
44823;DHT22;51097;51.984;5.650;2022-08-14T10:23:08;33.00;71.10
44823;DHT22;51097;51.984;5.650;2022-08-14T10:25:49;33.10;70.60
44823;DHT22;51097;51.984;5.650;2022-08-14T10:28:16;33.10;70.50
44823;DHT22;51097;51.984;5.650;2022-08-14T10:30:44;33.10;71.30
44823;DHT22;51097;51.984;5.650;2022-08-14T10:33:26;33.30;70.50
44823;DHT22;51097;51.984;5.650;2022-08-14T10:35:52;33.10;70.40
44823;DHT22;51097;51.984;5.650;2022-08-14T10:38:32;33.20;70.50
44823;DHT22;51097;51.984;5.650;2022-08-14T10:41:16;33.40;70.80
44823;DHT22;51097;51.984;5.650;2022-08-14T10:43:43;33.50;69.80
44823;DHT22;51097;51.984;5.650;2022-08-14T10:46:15;33.50;69.20
44823;DHT22;51097;51.984;5.650;2022-08-14T10:48:53;33.60;68.90
44823;DHT22;51097;51.984;5.650;2022-08-14T10:51:26;33.70;69.40
44823;DHT22;51097;51.984;5.650;2022-08-14T10:53:56;33.80;68.90
44823;DHT22;51097;51.984;5.650;2022-08-14T10:56:30;33.90;69.00
44823;DHT22;51097;51.984;5.650;2022-08-14T10:59:02;33.90;67.90
44823;DHT22;51097;51.984;5.650;2022-08-14T11:01:32;34.00;67.00
44823;DHT22;51097;51.984;5.650;2022-08-14T11:03:58;34.10;68.00
44823;DHT22;51097;51.984;5.650;2022-08-14T11:06:23;34.10;66.90
44823;DHT22;51097;51.984;5.650;2022-08-14T11:08:49;34.30;67.10
44823;DHT22;51097;51.984;5.650;2022-08-14T11:11:17;34.30;65.80
44823;DHT22;51097;51.984;5.650;2022-08-14T11:13:44;34.40;65.20
44823;DHT22;51097;51.984;5.650;2022-08-14T11:16:15;34.50;64.90
44823;DHT22;51097;51.984;5.650;2022-08-14T11:18:46;34.50;65.50
44823;DHT22;51097;51.984;5.650;2022-08-14T11:21:15;34.60;65.10
44823;DHT22;51097;51.984;5.650;2022-08-14T11:23:44;34.80;64.60
44823;DHT22;51097;51.984;5.650;2022-08-14T11:26:14;34.90;63.50
44823;DHT22;51097;51.984;5.650;2022-08-14T11:28:45;34.80;62.20
44823;DHT22;51097;51.984;5.650;2022-08-14T11:31:12;34.80;62.70
44823;DHT22;51097;51.984;5.650;2022-08-14T11:33:39;35.00;63.30
44823;DHT22;51097;51.984;5.650;2022-08-14T11:36:07;35.00;62.90
44823;DHT22;51097;51.984;5.650;2022-08-14T11:38:42;35.10;64.10
44823;DHT22;51097;51.984;5.650;2022-08-14T11:41:11;35.30;63.80
44823;DHT22;51097;51.984;5.650;2022-08-14T11:43:41;35.40;63.80
44823;DHT22;51097;51.984;5.650;2022-08-14T11:46:07;35.50;61.80
44823;DHT22;51097;51.984;5.650;2022-08-14T11:48:45;35.50;61.60
44823;DHT22;51097;51.984;5.650;2022-08-14T11:51:16;35.50;61.10
44823;DHT22;51097;51.984;5.650;2022-08-14T11:53:53;35.50;61.30
44823;DHT22;51097;51.984;5.650;2022-08-14T11:56:19;35.60;61.70
44823;DHT22;51097;51.984;5.650;2022-08-14T11:58:50;35.70;60.40
44823;DHT22;51097;51.984;5.650;2022-08-14T12:01:24;35.70;60.10
44823;DHT22;51097;51.984;5.650;2022-08-14T12:03:51;35.60;59.20
44823;DHT22;51097;51.984;5.650;2022-08-14T12:06:18;35.80;59.80
44823;DHT22;51097;51.984;5.650;2022-08-14T12:08:45;35.70;59.20
44823;DHT22;51097;51.984;5.650;2022-08-14T12:11:13;35.80;58.10
44823;DHT22;51097;51.984;5.650;2022-08-14T12:13:40;35.80;58.80
44823;DHT22;51097;51.984;5.650;2022-08-14T12:16:08;36.00;58.70
44823;DHT22;51097;51.984;5.650;2022-08-14T12:18:37;35.90;57.30
44823;DHT22;51097;51.984;5.650;2022-08-14T12:21:10;36.00;58.20
44823;DHT22;51097;51.984;5.650;2022-08-14T12:23:36;36.00;57.90
44823;DHT22;51097;51.984;5.650;2022-08-14T12:26:03;36.10;57.90
44823;DHT22;51097;51.984;5.650;2022-08-14T12:28:29;36.20;58.50
44823;DHT22;51097;51.984;5.650;2022-08-14T12:30:54;36.40;58.10
44823;DHT22;51097;51.984;5.650;2022-08-14T12:33:26;36.30;57.30
44823;DHT22;51097;51.984;5.650;2022-08-14T12:35:54;36.30;55.60
44823;DHT22;51097;51.984;5.650;2022-08-14T12:38:34;36.40;55.70
44823;DHT22;51097;51.984;5.650;2022-08-14T12:41:01;36.60;55.00
44823;DHT22;51097;51.984;5.650;2022-08-14T12:43:28;36.60;55.70
44823;DHT22;51097;51.984;5.650;2022-08-14T12:45:54;36.70;55.20
44823;DHT22;51097;51.984;5.650;2022-08-14T12:48:21;36.70;54.80
44823;DHT22;51097;51.984;5.650;2022-08-14T12:50:47;36.90;54.70
44823;DHT22;51097;51.984;5.650;2022-08-14T12:53:16;37.10;54.10
44823;DHT22;51097;51.984;5.650;2022-08-14T12:55:44;37.10;54.90
44823;DHT22;51097;51.984;5.650;2022-08-14T12:58:10;37.20;55.90
44823;DHT22;51097;51.984;5.650;2022-08-14T13:00:46;37.40;56.00
44823;DHT22;51097;51.984;5.650;2022-08-14T13:03:25;37.30;55.60
44823;DHT22;51097;51.984;5.650;2022-08-14T13:05:51;37.50;54.90
44823;DHT22;51097;51.984;5.650;2022-08-14T13:08:16;37.40;54.60
44823;DHT22;51097;51.984;5.650;2022-08-14T13:10:42;37.60;55.00
44823;DHT22;51097;51.984;5.650;2022-08-14T13:13:09;37.70;54.40
44823;DHT22;51097;51.984;5.650;2022-08-14T13:15:35;37.80;54.20
44823;DHT22;51097;51.984;5.650;2022-08-14T13:18:02;38.00;55.20
44823;DHT22;51097;51.984;5.650;2022-08-14T13:20:29;38.00;54.70
44823;DHT22;51097;51.984;5.650;2022-08-14T13:22:56;38.10;54.70
44823;DHT22;51097;51.984;5.650;2022-08-14T13:25:23;38.40;55.50
44823;DHT22;51097;51.984;5.650;2022-08-14T13:27:52;38.60;54.60
44823;DHT22;51097;51.984;5.650;2022-08-14T13:30:19;38.80;54.70
44823;DHT22;51097;51.984;5.650;2022-08-14T13:32:45;39.10;54.40
44823;DHT22;51097;51.984;5.650;2022-08-14T13:35:13;39.40;53.90
44823;DHT22;51097;51.984;5.650;2022-08-14T13:37:40;39.60;52.20
44823;DHT22;51097;51.984;5.650;2022-08-14T13:40:07;39.80;52.70
44823;DHT22;51097;51.984;5.650;2022-08-14T13:42:33;39.90;52.20
44823;DHT22;51097;51.984;5.650;2022-08-14T13:45:02;40.00;53.30
44823;DHT22;51097;51.984;5.650;2022-08-14T13:47:29;40.30;53.10
44823;DHT22;51097;51.984;5.650;2022-08-14T13:49:59;40.50;51.80
44823;DHT22;51097;51.984;5.650;2022-08-14T13:52:40;40.60;51.70
44823;DHT22;51097;51.984;5.650;2022-08-14T13:55:07;40.70;51.70
44823;DHT22;51097;51.984;5.650;2022-08-14T13:57:38;40.90;51.50
44823;DHT22;51097;51.984;5.650;2022-08-14T14:00:07;41.00;51.10
44823;DHT22;51097;51.984;5.650;2022-08-14T14:02:39;41.30;50.90
44823;DHT22;51097;51.984;5.650;2022-08-14T14:05:06;41.40;50.40
44823;DHT22;51097;51.984;5.650;2022-08-14T14:07:33;41.70;52.00
44823;DHT22;51097;51.984;5.650;2022-08-14T14:10:01;42.00;50.20
44823;DHT22;51097;51.984;5.650;2022-08-14T14:12:28;42.30;51.30
44823;DHT22;51097;51.984;5.650;2022-08-14T14:14:54;42.60;49.40
44823;DHT22;51097;51.984;5.650;2022-08-14T14:17:20;42.80;49.00
44823;DHT22;51097;51.984;5.650;2022-08-14T14:19:50;42.80;49.20
44823;DHT22;51097;51.984;5.650;2022-08-14T14:22:16;43.00;48.90
44823;DHT22;51097;51.984;5.650;2022-08-14T14:24:43;43.00;50.30
44823;DHT22;51097;51.984;5.650;2022-08-14T14:27:09;42.90;48.90
44823;DHT22;51097;51.984;5.650;2022-08-14T14:29:39;43.20;50.80
44823;DHT22;51097;51.984;5.650;2022-08-14T14:32:11;43.50;49.80
44823;DHT22;51097;51.984;5.650;2022-08-14T14:34:38;43.70;48.60
44823;DHT22;51097;51.984;5.650;2022-08-14T14:37:06;43.80;47.80
44823;DHT22;51097;51.984;5.650;2022-08-14T14:39:38;43.70;47.60
44823;DHT22;51097;51.984;5.650;2022-08-14T14:42:05;43.70;47.90
44823;DHT22;51097;51.984;5.650;2022-08-14T14:44:35;43.70;48.10
44823;DHT22;51097;51.984;5.650;2022-08-14T14:47:07;43.30;46.60
44823;DHT22;51097;51.984;5.650;2022-08-14T14:49:32;43.10;46.90
44823;DHT22;51097;51.984;5.650;2022-08-14T14:51:58;43.00;48.30
44823;DHT22;51097;51.984;5.650;2022-08-14T14:54:24;43.00;48.70
44823;DHT22;51097;51.984;5.650;2022-08-14T14:56:52;43.30;48.90
44823;DHT22;51097;51.984;5.650;2022-08-14T14:59:18;43.50;47.80
44823;DHT22;51097;51.984;5.650;2022-08-14T15:01:48;43.60;47.60
44823;DHT22;51097;51.984;5.650;2022-08-14T15:04:14;43.60;45.90
44823;DHT22;51097;51.984;5.650;2022-08-14T15:06:41;43.60;47.50
44823;DHT22;51097;51.984;5.650;2022-08-14T15:09:07;43.30;47.40
44823;DHT22;51097;51.984;5.650;2022-08-14T15:11:33;43.40;47.50
44823;DHT22;51097;51.984;5.650;2022-08-14T15:13:59;43.40;47.30
44823;DHT22;51097;51.984;5.650;2022-08-14T15:16:26;43.50;47.80
44823;DHT22;51097;51.984;5.650;2022-08-14T15:18:51;43.70;48.10
44823;DHT22;51097;51.984;5.650;2022-08-14T15:21:17;43.80;48.00
44823;DHT22;51097;51.984;5.650;2022-08-14T15:23:43;43.80;47.60
44823;DHT22;51097;51.984;5.650;2022-08-14T15:26:11;44.00;47.20
44823;DHT22;51097;51.984;5.650;2022-08-14T15:28:41;44.00;46.40
44823;DHT22;51097;51.984;5.650;2022-08-14T15:31:06;43.90;46.50
44823;DHT22;51097;51.984;5.650;2022-08-14T15:33:32;43.70;46.70
44823;DHT22;51097;51.984;5.650;2022-08-14T15:36:16;43.70;46.70
44823;DHT22;51097;51.984;5.650;2022-08-14T15:38:43;43.50;46.30
44823;DHT22;51097;51.984;5.650;2022-08-14T15:41:11;43.40;47.20
44823;DHT22;51097;51.984;5.650;2022-08-14T15:43:37;43.20;46.70
44823;DHT22;51097;51.984;5.650;2022-08-14T15:46:05;43.00;46.70
44823;DHT22;51097;51.984;5.650;2022-08-14T15:48:32;43.00;46.50
44823;DHT22;51097;51.984;5.650;2022-08-14T15:50:59;43.00;47.60
44823;DHT22;51097;51.984;5.650;2022-08-14T15:53:25;43.00;48.00
44823;DHT22;51097;51.984;5.650;2022-08-14T15:55:51;42.90;46.70
44823;DHT22;51097;51.984;5.650;2022-08-14T15:58:19;42.80;48.30